Time;durP1;ratioP1;P1;durP2;ratioP2;P2;SDS_P1;SDS_P2;PMS_P1;PMS_P2;Temp;Humidity;BMP_temperature;BMP_pressure;BME280_temperature;BME280_humidity;BME280_pressure;Samples;Min_cycle;Max_cycle;Signal;HPM_P1;HPM_P2
2023/11/03 00:00:15;;;;;;;0.25;0.25;;;;;;;;;;6029225;23;20242;-92
2023/11/03 00:03:21;;;;;;;0.57;0.50;;;;;;;;;;6028945;23;20490;-91
2023/11/03 00:06:27;;;;;;;0.30;0.30;;;;;;;;;;6030499;23;20180;-91
2023/11/03 00:09:37;;;;;;;0.20;0.20;;;;;;;;;;6027977;23;20691;-92
2023/11/03 00:12:42;;;;;;;0.20;0.20;;;;;;;;;;6027594;23;20224;-90
2023/11/03 00:15:47;;;;;;;0.85;0.30;;;;;;;;;;6026788;23;20159;-92
2023/11/03 00:18:57;;;;;;;0.20;0.20;;;;;;;;;;6027397;23;20179;-91
2023/11/03 00:22:03;;;;;;;0.20;0.20;;;;;;;;;;6025286;23;20205;-91
2023/11/03 00:25:13;;;;;;;0.30;0.30;;;;;;;;;;6026338;23;20217;-92
2023/11/03 00:28:18;;;;;;;0.20;0.20;;;;;;;;;;6025131;23;20225;-90
2023/11/03 00:31:23;;;;;;;0.20;0.20;;;;;;;;;;6023864;23;20533;-94
2023/11/03 00:34:29;;;;;;;2.53;0.43;;;;;;;;;;6022064;23;20508;-90
2023/11/03 00:37:34;;;;;;;0.47;0.47;;;;;;;;;;6022475;23;20176;-92
2023/11/03 00:40:41;;;;;;;0.20;0.20;;;;;;;;;;6022163;23;20167;-92
2023/11/03 00:43:47;;;;;;;0.30;0.30;;;;;;;;;;6029605;23;20216;-89
2023/11/03 00:46:52;;;;;;;0.20;0.20;;;;;;;;;;6035068;23;20175;-94
2023/11/03 00:49:57;;;;;;;0.25;0.25;;;;;;;;;;6034169;23;20256;-93
2023/11/03 00:53:02;;;;;;;0.30;0.30;;;;;;;;;;6035036;23;20171;-92
2023/11/03 00:56:09;;;;;;;0.20;0.20;;;;;;;;;;6035708;23;20179;-91
2023/11/03 00:59:14;;;;;;;0.28;0.28;;;;;;;;;;6034518;23;20221;-90
2023/11/03 01:02:19;;;;;;;0.22;0.22;;;;;;;;;;6035442;23;20196;-92
2023/11/03 01:05:25;;;;;;;0.20;0.20;;;;;;;;;;6035512;23;20198;-90
2023/11/03 01:08:30;;;;;;;0.30;0.30;;;;;;;;;;6035932;23;20201;-92
2023/11/03 01:11:37;;;;;;;0.43;0.43;;;;;;;;;;6035444;23;20304;-92
2023/11/03 01:14:43;;;;;;;0.20;0.20;;;;;;;;;;6034604;23;20179;-89
2023/11/03 01:17:49;;;;;;;0.30;0.30;;;;;;;;;;6035758;23;20175;-89
2023/11/03 01:20:57;;;;;;;0.20;0.20;;;;;;;;;;6034371;23;20171;-93
2023/11/03 01:24:03;;;;;;;0.30;0.30;;;;;;;;;;6036277;23;20308;-91
2023/11/03 01:27:09;;;;;;;0.30;0.30;;;;;;;;;;6035470;23;20175;-93
2023/11/03 01:30:16;;;;;;;0.85;0.65;;;;;;;;;;6034741;23;20175;-90
2023/11/03 01:33:21;;;;;;;0.20;0.20;;;;;;;;;;6035397;23;20184;-93
2023/11/03 01:36:26;;;;;;;0.30;0.30;;;;;;;;;;6036211;23;20209;-93
2023/11/03 01:39:31;;;;;;;0.20;0.20;;;;;;;;;;6034528;23;20175;-88
2023/11/03 01:42:39;;;;;;;0.20;0.20;;;;;;;;;;6036083;23;20627;-91
2023/11/03 01:45:44;;;;;;;0.28;0.28;;;;;;;;;;6037755;23;20261;-88
2023/11/03 01:48:50;;;;;;;0.28;0.28;;;;;;;;;;6038976;23;20217;-90
2023/11/03 01:51:55;;;;;;;0.20;0.20;;;;;;;;;;6042296;23;20175;-93
2023/11/03 01:55:01;;;;;;;0.20;0.20;;;;;;;;;;6039054;23;20175;-93
2023/11/03 01:58:09;;;;;;;0.20;0.20;;;;;;;;;;6040000;23;20196;-89
2023/11/03 02:01:14;;;;;;;0.30;0.30;;;;;;;;;;6038279;23;20163;-92
2023/11/03 02:04:20;;;;;;;0.30;0.30;;;;;;;;;;6038470;23;20175;-92
2023/11/03 02:07:25;;;;;;;0.20;0.20;;;;;;;;;;6038154;23;20171;-92
2023/11/03 02:10:30;;;;;;;0.20;0.20;;;;;;;;;;6039543;23;20216;-93
2023/11/03 02:13:37;;;;;;;0.20;0.20;;;;;;;;;;6039700;23;20188;-93
2023/11/03 02:16:43;;;;;;;0.30;0.30;;;;;;;;;;6039128;23;20163;-92
2023/11/03 02:19:49;;;;;;;3.40;0.40;;;;;;;;;;6038652;23;20176;-93
2023/11/03 02:22:57;;;;;;;0.30;0.30;;;;;;;;;;6039258;23;20172;-93
2023/11/03 02:26:03;;;;;;;0.20;0.20;;;;;;;;;;6038720;23;20199;-91
2023/11/03 02:29:08;;;;;;;0.20;0.20;;;;;;;;;;6039112;23;20180;-91
2023/11/03 02:32:14;;;;;;;0.20;0.20;;;;;;;;;;6039335;23;20164;-93
2023/11/03 02:35:20;;;;;;;0.20;0.20;;;;;;;;;;6038084;23;20175;-93
2023/11/03 02:38:27;;;;;;;0.40;0.40;;;;;;;;;;6037356;23;20154;-92
2023/11/03 02:41:33;;;;;;;0.30;0.30;;;;;;;;;;6040067;23;20231;-93
2023/11/03 02:44:38;;;;;;;0.30;0.30;;;;;;;;;;6024234;23;20211;-89
2023/11/03 02:47:43;;;;;;;0.63;0.38;;;;;;;;;;6024785;23;20305;-93
2023/11/03 02:50:48;;;;;;;0.40;0.40;;;;;;;;;;6024839;23;20229;-91
2023/11/03 02:53:55;;;;;;;0.30;0.30;;;;;;;;;;6023309;23;20172;-92
2023/11/03 02:57:01;;;;;;;0.28;0.28;;;;;;;;;;6023202;23;20160;-92
2023/11/03 03:00:07;;;;;;;0.20;0.20;;;;;;;;;;6021479;23;20221;-92
2023/11/03 03:03:12;;;;;;;0.47;0.47;;;;;;;;;;6023917;23;20220;-93
2023/11/03 03:06:17;;;;;;;0.30;0.30;;;;;;;;;;6040441;23;20220;-91
2023/11/03 03:09:25;;;;;;;0.30;0.30;;;;;;;;;;6026362;23;20172;-91
2023/11/03 03:12:38;;;;;;;0.40;0.40;;;;;;;;;;6026000;23;20227;-92
2023/11/03 03:15:44;;;;;;;0.40;0.40;;;;;;;;;;6025856;23;20176;-92
2023/11/03 03:18:49;;;;;;;0.30;0.30;;;;;;;;;;6025242;23;20500;-92
2023/11/03 03:21:54;;;;;;;0.30;0.30;;;;;;;;;;6024142;23;20222;-93
2023/11/03 03:25:18;;;;;;;0.28;0.28;;;;;;;;;;6031750;23;20199;-91
2023/11/03 03:28:31;;;;;;;0.30;0.30;;;;;;;;;;6026145;23;20186;-91
2023/11/03 03:31:37;;;;;;;0.30;0.30;;;;;;;;;;6027828;23;20176;-92
2023/11/03 03:34:42;;;;;;;0.63;0.63;;;;;;;;;;6026898;23;20179;-93
2023/11/03 03:37:47;;;;;;;0.20;0.20;;;;;;;;;;6025312;23;20180;-92
2023/11/03 03:40:54;;;;;;;0.30;0.30;;;;;;;;;;6023933;23;20168;-93
2023/11/03 03:44:01;;;;;;;0.38;0.38;;;;;;;;;;6034110;23;20178;-94
2023/11/03 03:47:06;;;;;;;0.30;0.30;;;;;;;;;;6036998;23;20156;-92
2023/11/03 03:50:12;;;;;;;1.85;0.52;;;;;;;;;;6035843;23;20171;-92
2023/11/03 03:53:17;;;;;;;0.30;0.30;;;;;;;;;;6037234;23;20513;-93
2023/11/03 03:56:25;;;;;;;0.25;0.25;;;;;;;;;;6035706;23;20668;-91
2023/11/03 03:59:31;;;;;;;0.30;0.30;;;;;;;;;;6035141;23;20158;-93
2023/11/03 04:02:36;;;;;;;0.20;0.20;;;;;;;;;;6034814;23;20264;-94
2023/11/03 04:05:41;;;;;;;1.08;0.30;;;;;;;;;;6034104;23;20226;-91
2023/11/03 04:08:46;;;;;;;0.20;0.20;;;;;;;;;;6034804;23;20228;-90
2023/11/03 04:11:53;;;;;;;0.32;0.32;;;;;;;;;;6035227;23;20186;-89
2023/11/03 04:14:58;;;;;;;0.52;0.52;;;;;;;;;;6035760;23;20155;-92
2023/11/03 04:18:03;;;;;;;0.30;0.30;;;;;;;;;;6036417;23;20175;-93
2023/11/03 04:21:09;;;;;;;0.40;0.40;;;;;;;;;;6035635;23;20523;-92
2023/11/03 04:24:14;;;;;;;0.20;0.20;;;;;;;;;;6035848;23;20167;-90
2023/11/03 04:27:20;;;;;;;0.30;0.30;;;;;;;;;;6035890;23;20171;-89
2023/11/03 04:30:25;;;;;;;0.40;0.40;;;;;;;;;;6036022;23;20171;-91
2023/11/03 04:33:30;;;;;;;0.65;0.65;;;;;;;;;;6035758;23;20151;-91
2023/11/03 04:36:36;;;;;;;0.20;0.20;;;;;;;;;;6038086;23;20167;-91
2023/11/03 04:39:41;;;;;;;0.55;0.50;;;;;;;;;;6041176;23;20171;-94
2023/11/03 04:42:48;;;;;;;0.20;0.20;;;;;;;;;;6040725;23;20228;-95
2023/11/03 04:45:54;;;;;;;0.30;0.30;;;;;;;;;;6029357;23;20195;-93
2023/11/03 04:48:59;;;;;;;0.30;0.30;;;;;;;;;;6011204;23;20205;-93
2023/11/03 04:52:05;;;;;;;0.30;0.30;;;;;;;;;;6012299;23;20155;-93
2023/11/03 04:55:10;;;;;;;1.10;0.57;;;;;;;;;;6012336;23;20171;-91
2023/11/03 04:58:19;;;;;;;0.32;0.32;;;;;;;;;;6013993;23;20208;-91
2023/11/03 05:01:26;;;;;;;1.60;0.52;;;;;;;;;;6013113;23;20156;-93
2023/11/03 05:04:31;;;;;;;0.40;0.40;;;;;;;;;;6011542;23;20175;-92
2023/11/03 05:07:41;;;;;;;0.50;0.50;;;;;;;;;;6013295;23;20240;-90
2023/11/03 05:10:48;;;;;;;0.40;0.40;;;;;;;;;;6011981;23;20189;-93
2023/11/03 05:13:56;;;;;;;0.80;0.50;;;;;;;;;;6012380;23;20176;-89
2023/11/03 05:17:01;;;;;;;0.40;0.40;;;;;;;;;;6012616;23;20180;-92
2023/11/03 05:20:08;;;;;;;0.93;0.70;;;;;;;;;;6013735;23;20500;-91
2023/11/03 05:23:13;;;;;;;0.35;0.35;;;;;;;;;;6015883;23;20220;-93
2023/11/03 05:26:20;;;;;;;0.28;0.28;;;;;;;;;;6014218;23;20202;-92
2023/11/03 05:29:27;;;;;;;0.30;0.30;;;;;;;;;;6015631;23;20227;-90
2023/11/03 05:32:33;;;;;;;0.70;0.70;;;;;;;;;;6014698;23;20507;-92
2023/11/03 05:38:58;;;;;;;2.22;1.25;;;;;;;;;;6015088;23;20268;-91
2023/11/03 05:42:04;;;;;;;1.98;0.95;;;;;;;;;;6010653;23;20178;-89
2023/11/03 05:45:12;;;;;;;0.30;0.30;;;;;;;;;;6021247;23;20252;-91
2023/11/03 05:48:17;;;;;;;0.40;0.40;;;;;;;;;;6026983;23;20242;-93
2023/11/03 05:54:41;;;;;;;1.25;0.55;;;;;;;;;;6027782;23;20232;-92
2023/11/03 05:57:47;;;;;;;0.50;0.50;;;;;;;;;;6026332;23;20172;-93
2023/11/03 06:00:54;;;;;;;0.30;0.30;;;;;;;;;;6029772;23;20217;-92
2023/11/03 06:03:59;;;;;;;0.40;0.40;;;;;;;;;;6042968;23;20168;-93
2023/11/03 06:07:06;;;;;;;0.50;0.50;;;;;;;;;;6024440;23;20196;-92
2023/11/03 06:10:13;;;;;;;0.40;0.40;;;;;;;;;;6026441;23;20171;-93
2023/11/03 06:13:20;;;;;;;0.63;0.63;;;;;;;;;;6025608;23;20176;-91
2023/11/03 06:16:26;;;;;;;0.30;0.30;;;;;;;;;;6026347;23;20205;-93
2023/11/03 06:19:32;;;;;;;0.30;0.30;;;;;;;;;;6026367;23;20235;-92
2023/11/03 06:22:41;;;;;;;0.40;0.40;;;;;;;;;;6026684;23;20175;-92
2023/11/03 06:25:48;;;;;;;0.30;0.30;;;;;;;;;;6026874;23;20277;-92
2023/11/03 06:28:56;;;;;;;0.47;0.47;;;;;;;;;;6025803;23;20156;-93
2023/11/03 06:32:04;;;;;;;0.50;0.50;;;;;;;;;;6027826;23;20189;-91
2023/11/03 06:35:11;;;;;;;0.30;0.30;;;;;;;;;;6027655;23;20197;-92
2023/11/03 06:38:16;;;;;;;1.17;0.68;;;;;;;;;;6027325;23;20222;-91
2023/11/03 06:41:22;;;;;;;3.30;0.95;;;;;;;;;;6028425;23;20183;-92
2023/11/03 06:44:27;;;;;;;0.60;0.60;;;;;;;;;;6026919;23;20200;-91
2023/11/03 06:47:33;;;;;;;0.30;0.30;;;;;;;;;;6026921;23;20260;-92
2023/11/03 06:50:38;;;;;;;0.30;0.30;;;;;;;;;;6028103;23;20248;-92
2023/11/03 06:53:45;;;;;;;0.80;0.55;;;;;;;;;;6027127;23;20252;-91
2023/11/03 06:56:50;;;;;;;0.45;0.45;;;;;;;;;;6027040;23;20171;-93
2023/11/03 06:59:59;;;;;;;0.45;0.45;;;;;;;;;;6025717;23;20171;-91
2023/11/03 07:03:09;;;;;;;1.17;0.60;;;;;;;;;;6028968;23;20171;-92
2023/11/03 07:06:14;;;;;;;0.30;0.30;;;;;;;;;;6029413;23;20200;-93
2023/11/03 07:09:20;;;;;;;0.50;0.50;;;;;;;;;;6027416;23;20171;-92
2023/11/03 07:12:26;;;;;;;1.02;0.77;;;;;;;;;;6027321;23;20220;-93
2023/11/03 07:15:32;;;;;;;0.52;0.52;;;;;;;;;;6025950;23;20220;-92
2023/11/03 07:18:44;;;;;;;0.40;0.40;;;;;;;;;;6025447;23;20171;-92
2023/11/03 07:21:50;;;;;;;0.88;0.60;;;;;;;;;;6025554;23;20183;-94
2023/11/03 07:24:55;;;;;;;0.20;0.20;;;;;;;;;;6024497;23;20251;-92
2023/11/03 07:28:00;;;;;;;1.17;0.50;;;;;;;;;;6023363;23;20189;-93
2023/11/03 07:31:10;;;;;;;0.50;0.50;;;;;;;;;;6023800;23;20217;-93
2023/11/03 07:34:18;;;;;;;0.63;0.63;;;;;;;;;;6025594;23;20180;-92
2023/11/03 07:37:23;;;;;;;0.60;0.60;;;;;;;;;;6023321;23;20168;-93
2023/11/03 07:40:28;;;;;;;0.47;0.47;;;;;;;;;;6022198;23;20260;-91
2023/11/03 07:43:35;;;;;;;1.52;0.63;;;;;;;;;;6028910;23;20208;-92
2023/11/03 07:46:40;;;;;;;0.40;0.40;;;;;;;;;;6035570;23;20278;-92
2023/11/03 07:49:47;;;;;;;1.83;0.70;;;;;;;;;;6037442;23;20236;-93
2023/11/03 07:52:52;;;;;;;0.30;0.30;;;;;;;;;;6037823;23;20200;-92
2023/11/03 07:55:58;;;;;;;0.85;0.60;;;;;;;;;;6036006;23;20756;-92
2023/11/03 07:59:03;;;;;;;0.30;0.30;;;;;;;;;;6037203;23;20199;-92
2023/11/03 08:02:09;;;;;;;0.50;0.50;;;;;;;;;;6038249;23;20170;-93
2023/11/03 08:05:18;;;;;;;0.50;0.50;;;;;;;;;;6038321;23;20445;-91
2023/11/03 08:08:23;;;;;;;0.40;0.40;;;;;;;;;;6037594;23;20179;-92
2023/11/03 08:11:28;;;;;;;0.32;0.32;;;;;;;;;;6036686;23;20171;-92
2023/11/03 08:14:35;;;;;;;0.55;0.55;;;;;;;;;;6035895;23;20188;-93
2023/11/03 08:17:43;;;;;;;0.47;0.47;;;;;;;;;;6038727;23;20183;-92
2023/11/03 08:20:50;;;;;;;0.30;0.30;;;;;;;;;;6036552;23;20204;-91
2023/11/03 08:23:55;;;;;;;0.95;0.68;;;;;;;;;;6037848;23;20185;-94
2023/11/03 08:27:02;;;;;;;0.50;0.50;;;;;;;;;;6038381;23;20199;-91
2023/11/03 08:30:08;;;;;;;0.30;0.30;;;;;;;;;;6038893;23;20178;-94
2023/11/03 08:33:14;;;;;;;0.30;0.30;;;;;;;;;;6036623;23;20294;-93
2023/11/03 08:36:23;;;;;;;0.50;0.50;;;;;;;;;;6054608;23;20171;-93
2023/11/03 08:39:28;;;;;;;0.50;0.50;;;;;;;;;;6037107;23;20184;-93
2023/11/03 08:42:34;;;;;;;1.20;1.10;;;;;;;;;;6037469;23;20175;-93
2023/11/03 08:45:40;;;;;;;0.52;0.52;;;;;;;;;;6039939;23;20183;-92
2023/11/03 08:48:54;;;;;;;2.38;1.38;;;;;;;;;;6038276;23;20182;-92
2023/11/03 08:52:02;;;;;;;0.40;0.40;;;;;;;;;;6035810;23;20172;-93
2023/11/03 08:55:08;;;;;;;0.43;0.40;;;;;;;;;;6036614;23;20167;-92
2023/11/03 08:58:15;;;;;;;0.35;0.35;;;;;;;;;;6037737;23;20171;-93
2023/11/03 09:01:21;;;;;;;0.30;0.30;;;;;;;;;;6054603;23;20174;-94
2023/11/03 09:04:28;;;;;;;0.20;0.20;;;;;;;;;;6056179;23;20176;-91
2023/11/03 09:07:35;;;;;;;0.55;0.50;;;;;;;;;;6037449;23;20195;-92
2023/11/03 09:10:41;;;;;;;0.35;0.35;;;;;;;;;;6039615;23;20311;-90
2023/11/03 09:13:52;;;;;;;0.38;0.38;;;;;;;;;;6039861;23;20171;-92
2023/11/03 09:16:58;;;;;;;0.70;0.70;;;;;;;;;;6037732;23;20504;-93
2023/11/03 09:20:04;;;;;;;0.55;0.40;;;;;;;;;;6037595;23;20623;-93
2023/11/03 09:23:12;;;;;;;0.30;0.30;;;;;;;;;;6036864;23;20224;-91
2023/11/03 09:26:17;;;;;;;0.30;0.30;;;;;;;;;;6037916;23;20199;-93
2023/11/03 09:29:23;;;;;;;0.20;0.20;;;;;;;;;;6037358;23;20183;-92
2023/11/03 09:32:29;;;;;;;0.30;0.30;;;;;;;;;;6038187;23;20200;-92
2023/11/03 09:35:35;;;;;;;0.63;0.63;;;;;;;;;;6039742;23;20220;-90
2023/11/03 09:38:42;;;;;;;0.35;0.35;;;;;;;;;;6040700;23;20175;-92
2023/11/03 09:41:49;;;;;;;0.45;0.45;;;;;;;;;;6039949;23;20171;-91
2023/11/03 09:44:57;;;;;;;0.30;0.30;;;;;;;;;;6028557;23;20203;-92
2023/11/03 09:48:04;;;;;;;0.30;0.30;;;;;;;;;;6026833;23;20714;-92
2023/11/03 09:51:10;;;;;;;0.20;0.20;;;;;;;;;;6025500;23;20175;-93
2023/11/03 09:54:23;;;;;;;3.08;0.47;;;;;;;;;;6029153;23;20194;-92
2023/11/03 09:57:28;;;;;;;0.30;0.30;;;;;;;;;;6028183;23;20171;-95
2023/11/03 10:00:37;;;;;;;0.35;0.35;;;;;;;;;;6027720;23;20177;-93
2023/11/03 10:07:02;;;;;;;0.40;0.32;;;;;;;;;;6029102;23;20675;-92
2023/11/03 10:10:10;;;;;;;0.30;0.30;;;;;;;;;;6029653;23;20155;-91
2023/11/03 10:16:35;;;;;;;0.32;0.32;;;;;;;;;;6027250;23;20191;-91
2023/11/03 10:19:40;;;;;;;0.30;0.30;;;;;;;;;;6027220;23;20183;-92
2023/11/03 10:22:47;;;;;;;0.35;0.35;;;;;;;;;;6027518;23;20272;-94
2023/11/03 10:25:55;;;;;;;0.30;0.30;;;;;;;;;;6025642;23;20237;-92
2023/11/03 10:29:05;;;;;;;0.30;0.30;;;;;;;;;;6025848;23;20176;-94
2023/11/03 10:32:10;;;;;;;0.63;0.40;;;;;;;;;;6027590;23;20179;-90
2023/11/03 10:35:15;;;;;;;0.22;0.22;;;;;;;;;;6027680;23;20178;-92
2023/11/03 10:38:23;;;;;;;1.00;0.65;;;;;;;;;;6031785;23;20163;-93
2023/11/03 10:41:30;;;;;;;0.20;0.20;;;;;;;;;;6031524;23;20183;-93
2023/11/03 10:48:09;;;;;;;0.30;0.30;;;;;;;;;;6037266;23;20211;-94
2023/11/03 10:51:26;;;;;;;0.70;0.60;;;;;;;;;;6036923;23;20201;-91
2023/11/03 12:08:14;;;;;;;0.30;0.30;;;;;;;;;;5919293;24;20225;-93
2023/11/03 12:11:20;;;;;;;0.70;0.52;;;;;;;;;;5956390;24;20199;-92
2023/11/03 12:14:25;;;;;;;0.30;0.30;;;;;;;;;;5953493;23;20199;-93
2023/11/03 12:17:30;;;;;;;0.30;0.30;;;;;;;;;;5952516;24;20219;-92
2023/11/03 12:20:36;;;;;;;0.30;0.30;;;;;;;;;;5954161;24;20203;-94
2023/11/03 12:23:43;;;;;;;0.20;0.20;;;;;;;;;;5957380;24;20281;-92
2023/11/03 12:26:49;;;;;;;0.55;0.55;;;;;;;;;;5957017;24;20196;-91
2023/11/03 12:30:03;;;;;;;0.30;0.30;;;;;;;;;;5957488;24;20182;-93
2023/11/03 12:33:11;;;;;;;0.30;0.30;;;;;;;;;;5957842;24;20653;-93
2023/11/03 12:36:20;;;;;;;0.30;0.30;;;;;;;;;;5959553;23;20200;-90
2023/11/03 12:39:28;;;;;;;0.40;0.40;;;;;;;;;;5959100;24;20173;-92
2023/11/03 12:42:43;;;;;;;0.65;0.55;;;;;;;;;;5958612;24;20199;-95
2023/11/03 12:46:13;;;;;;;0.30;0.30;;;;;;;;;;5956833;24;20173;-91
2023/11/03 12:49:21;;;;;;;0.30;0.30;;;;;;;;;;5956413;23;20181;-93
2023/11/03 12:52:28;;;;;;;0.55;0.55;;;;;;;;;;5958805;23;20174;-94
2023/11/03 12:55:36;;;;;;;0.55;0.50;;;;;;;;;;5954725;24;20246;-93
2023/11/03 12:58:42;;;;;;;0.30;0.30;;;;;;;;;;5954623;24;20219;-91
2023/11/03 13:01:47;;;;;;;0.68;0.68;;;;;;;;;;5954908;24;20173;-93
2023/11/03 13:04:54;;;;;;;0.20;0.20;;;;;;;;;;5955452;24;20160;-91
2023/11/03 13:08:01;;;;;;;0.68;0.68;;;;;;;;;;5958140;24;20201;-93
2023/11/03 13:11:13;;;;;;;0.73;0.73;;;;;;;;;;5958426;24;20217;-92
2023/11/03 13:14:21;;;;;;;0.32;0.32;;;;;;;;;;5959587;24;20602;-91
2023/11/03 13:17:27;;;;;;;0.30;0.30;;;;;;;;;;5957582;24;20199;-92
2023/11/03 13:20:36;;;;;;;0.40;0.40;;;;;;;;;;5957816;24;20195;-91
2023/11/03 13:23:44;;;;;;;2.72;1.30;;;;;;;;;;5957019;24;20248;-93
2023/11/03 13:26:53;;;;;;;0.30;0.30;;;;;;;;;;5957607;24;20177;-92
2023/11/03 13:30:00;;;;;;;0.30;0.30;;;;;;;;;;5955544;24;20243;-91
2023/11/03 13:33:05;;;;;;;0.50;0.50;;;;;;;;;;5955663;24;20219;-91
2023/11/03 13:36:13;;;;;;;0.40;0.40;;;;;;;;;;5957067;24;20169;-95
2023/11/03 13:42:51;;;;;;;0.30;0.30;;;;;;;;;;5973563;24;20232;-92
2023/11/03 13:45:57;;;;;;;0.90;0.65;;;;;;;;;;5957959;23;20218;-92
2023/11/03 13:49:03;;;;;;;0.30;0.30;;;;;;;;;;5960558;24;20189;-92
2023/11/03 13:52:10;;;;;;;1.85;0.75;;;;;;;;;;5957163;24;20356;-91
2023/11/03 13:55:16;;;;;;;0.30;0.30;;;;;;;;;;5956761;24;20215;-92
2023/11/03 13:58:23;;;;;;;0.57;0.57;;;;;;;;;;5953386;24;20250;-93
2023/11/03 14:01:29;;;;;;;0.40;0.38;;;;;;;;;;5952613;24;20222;-93
2023/11/03 14:04:35;;;;;;;0.30;0.30;;;;;;;;;;5959194;24;20192;-91
2023/11/03 14:07:44;;;;;;;0.57;0.57;;;;;;;;;;5954903;24;20648;-93
2023/11/03 14:10:53;;;;;;;0.50;0.50;;;;;;;;;;5955773;24;20181;-91
2023/11/03 14:14:02;;;;;;;0.30;0.30;;;;;;;;;;5957870;23;20218;-91
2023/11/03 14:17:07;;;;;;;0.40;0.40;;;;;;;;;;5956805;24;20181;-93
2023/11/03 14:20:15;;;;;;;0.38;0.38;;;;;;;;;;5954255;24;20177;-91
2023/11/03 14:23:25;;;;;;;6.50;0.65;;;;;;;;;;5955519;24;20517;-91
2023/11/03 14:26:31;;;;;;;0.30;0.30;;;;;;;;;;5959031;24;20161;-95
2023/11/03 14:29:40;;;;;;;0.22;0.22;;;;;;;;;;5974134;24;20178;-92
2023/11/03 14:32:49;;;;;;;0.93;0.57;;;;;;;;;;5959515;23;20226;-92
2023/11/03 14:35:55;;;;;;;0.30;0.30;;;;;;;;;;5954830;24;20177;-91
2023/11/03 14:39:08;;;;;;;0.30;0.30;;;;;;;;;;5957848;24;20189;-93
2023/11/03 14:42:19;;;;;;;0.70;0.70;;;;;;;;;;5943420;24;20898;-91
2023/11/03 14:45:41;;;;;;;0.28;0.28;;;;;;;;;;5957679;24;20250;-93
2023/11/03 14:48:51;;;;;;;0.30;0.30;;;;;;;;;;5958294;24;20198;-90
2023/11/03 14:55:19;;;;;;;0.30;0.30;;;;;;;;;;5958738;24;20261;-92
2023/11/03 14:58:29;;;;;;;1.40;1.02;;;;;;;;;;5960223;23;20189;-91
2023/11/03 15:01:35;;;;;;;0.38;0.38;;;;;;;;;;5958933;24;20173;-92
2023/11/03 15:04:51;;;;;;;0.30;0.30;;;;;;;;;;5960559;24;20176;-93
2023/11/03 15:07:57;;;;;;;0.45;0.43;;;;;;;;;;5958084;24;20176;-91
2023/11/03 15:11:03;;;;;;;0.50;0.50;;;;;;;;;;5956171;24;20319;-92
2023/11/03 15:14:10;;;;;;;0.50;0.50;;;;;;;;;;5959210;24;20169;-93
2023/11/03 15:17:16;;;;;;;0.30;0.30;;;;;;;;;;5959854;24;20263;-92
2023/11/03 15:20:37;;;;;;;3.17;0.38;;;;;;;;;;5959684;24;20177;-92
2023/11/03 15:23:45;;;;;;;0.35;0.35;;;;;;;;;;5975774;24;20165;-92
2023/11/03 15:26:52;;;;;;;0.50;0.47;;;;;;;;;;5958316;24;20219;-93
2023/11/03 15:29:58;;;;;;;0.73;0.73;;;;;;;;;;5959456;24;20173;-93
2023/11/03 15:33:06;;;;;;;4.30;1.05;;;;;;;;;;5959182;24;20169;-92
2023/11/03 15:43:20;;;;;;;0.40;0.40;;;;;;;;;;5957704;24;20201;-94
2023/11/03 15:46:26;;;;;;;0.40;0.40;;;;;;;;;;5956005;24;20319;-92
2023/11/03 15:49:33;;;;;;;0.65;0.65;;;;;;;;;;5957248;24;20254;-90
2023/11/03 15:52:38;;;;;;;0.60;0.60;;;;;;;;;;5955031;24;20720;-92
2023/11/03 15:55:48;;;;;;;5.38;0.47;;;;;;;;;;5954728;24;20172;-92
2023/11/03 15:58:54;;;;;;;0.43;0.43;;;;;;;;;;5957466;23;20176;-91
2023/11/03 16:02:00;;;;;;;0.40;0.40;;;;;;;;;;5960019;23;20184;-93
2023/11/03 16:05:06;;;;;;;1.02;0.77;;;;;;;;;;5959075;24;20211;-92
2023/11/03 16:08:13;;;;;;;0.63;0.63;;;;;;;;;;5932190;24;20227;-90
2023/11/03 16:11:23;;;;;;;0.60;0.60;;;;;;;;;;5932915;24;20196;-91
2023/11/03 16:14:43;;;;;;;6.03;1.33;;;;;;;;;;5934778;24;20187;-93
2023/11/03 16:17:49;;;;;;;0.55;0.55;;;;;;;;;;5932319;24;20212;-91
2023/11/03 16:20:55;;;;;;;9.15;1.30;;;;;;;;;;5948268;24;20495;-90
2023/11/03 16:24:02;;;;;;;0.80;0.73;;;;;;;;;;5930480;24;20270;-89
2023/11/03 16:27:16;;;;;;;0.40;0.40;;;;;;;;;;5946342;24;20185;-93
2023/11/03 16:30:23;;;;;;;0.30;0.30;;;;;;;;;;5933451;24;20313;-92
2023/11/03 16:33:30;;;;;;;0.55;0.55;;;;;;;;;;5949892;24;20200;-91
2023/11/03 16:43:20;;;;;;;0.30;0.30;;;;;;;;;;5928659;24;20194;-90
2023/11/03 16:46:26;;;;;;;0.40;0.40;;;;;;;;;;5944892;24;20182;-91
2023/11/03 16:49:32;;;;;;;0.32;0.32;;;;;;;;;;5927085;24;20189;-90
2023/11/03 16:52:39;;;;;;;0.30;0.30;;;;;;;;;;5944217;24;20177;-92
2023/11/03 16:55:49;;;;;;;7.38;1.30;;;;;;;;;;5944569;24;20174;-90
2023/11/03 16:58:58;;;;;;;0.30;0.30;;;;;;;;;;5942224;24;20178;-92
2023/11/03 17:02:04;;;;;;;1.33;0.77;;;;;;;;;;5942864;24;20678;-92
2023/11/03 17:05:11;;;;;;;0.50;0.50;;;;;;;;;;5926404;24;20169;-91
2023/11/03 17:20:12;;;;;;;0.50;0.50;;;;;;;;;;5948535;23;20192;-89
2023/11/03 17:23:18;;;;;;;0.45;0.45;;;;;;;;;;6072213;23;20171;-90
2023/11/03 17:26:27;;;;;;;0.55;0.55;;;;;;;;;;6055930;23;20170;-93
2023/11/03 17:29:35;;;;;;;0.50;0.50;;;;;;;;;;6070301;23;20243;-90
2023/11/03 17:32:42;;;;;;;0.30;0.30;;;;;;;;;;6068591;23;20210;-92
2023/11/03 17:35:50;;;;;;;12.18;0.93;;;;;;;;;;6070293;23;20175;-90
2023/11/03 17:38:56;;;;;;;0.65;0.65;;;;;;;;;;6070238;23;20511;-93
2023/11/03 17:42:01;;;;;;;1.20;0.60;;;;;;;;;;6067904;23;20182;-92
2023/11/03 17:45:08;;;;;;;4.50;0.65;;;;;;;;;;6068424;23;20233;-95
2023/11/03 17:48:14;;;;;;;0.68;0.68;;;;;;;;;;6067997;23;20190;-91
2023/11/03 17:51:22;;;;;;;0.55;0.55;;;;;;;;;;6068116;23;20270;-91
2023/11/03 17:54:27;;;;;;;0.50;0.50;;;;;;;;;;6067219;23;20303;-91
2023/11/03 17:57:33;;;;;;;0.40;0.40;;;;;;;;;;6068736;23;20178;-89
2023/11/03 18:00:39;;;;;;;0.30;0.30;;;;;;;;;;6067913;23;20184;-91
2023/11/03 18:03:44;;;;;;;4.53;1.83;;;;;;;;;;6068225;23;20158;-91
2023/11/03 18:06:51;;;;;;;0.50;0.50;;;;;;;;;;6066865;23;20545;-90
2023/11/03 18:09:57;;;;;;;1.20;1.10;;;;;;;;;;6066749;23;20198;-93
2023/11/03 18:13:02;;;;;;;1.13;0.90;;;;;;;;;;6065533;23;20187;-91
2023/11/03 18:16:09;;;;;;;2.67;1.15;;;;;;;;;;6065382;23;20223;-91
2023/11/03 18:19:15;;;;;;;1.65;1.38;;;;;;;;;;6065864;23;20210;-92
2023/11/03 18:22:21;;;;;;;1.20;0.70;;;;;;;;;;6067103;23;20207;-91
2023/11/03 18:25:28;;;;;;;1.95;0.50;;;;;;;;;;6065967;23;20211;-93
2023/11/03 18:28:33;;;;;;;0.50;0.50;;;;;;;;;;6065957;23;20251;-92
2023/11/03 18:31:38;;;;;;;1.83;1.02;;;;;;;;;;6065883;23;20174;-92
2023/11/03 18:34:43;;;;;;;2.85;0.80;;;;;;;;;;6067734;23;20174;-92
2023/11/03 18:37:50;;;;;;;0.40;0.40;;;;;;;;;;6067802;23;20174;-92
2023/11/03 18:40:55;;;;;;;0.60;0.60;;;;;;;;;;6067413;23;20247;-91
2023/11/03 18:47:19;;;;;;;1.23;0.90;;;;;;;;;;6070348;23;20223;-90
2023/11/03 18:50:28;;;;;;;1.08;0.95;;;;;;;;;;6071682;23;20191;-90
2023/11/03 18:53:41;;;;;;;0.40;0.40;;;;;;;;;;6070514;23;20299;-92
2023/11/03 18:56:48;;;;;;;0.40;0.40;;;;;;;;;;6070267;23;20166;-90
2023/11/03 18:59:54;;;;;;;9.13;2.25;;;;;;;;;;6070532;23;20194;-92
2023/11/03 19:03:03;;;;;;;0.77;0.70;;;;;;;;;;6055400;23;20180;-91
2023/11/03 19:06:12;;;;;;;1.10;0.70;;;;;;;;;;6089134;23;20279;-92
2023/11/03 19:09:20;;;;;;;0.93;0.68;;;;;;;;;;6070093;23;20194;-93
2023/11/03 19:12:30;;;;;;;0.55;0.55;;;;;;;;;;6070179;23;20170;-90
2023/11/03 19:15:37;;;;;;;0.50;0.50;;;;;;;;;;6069365;23;20157;-91
2023/11/03 19:22:04;;;;;;;0.77;0.52;;;;;;;;;;6070892;23;20194;-92
2023/11/03 19:25:14;;;;;;;0.80;0.57;;;;;;;;;;6055792;23;20167;-91
2023/11/03 19:28:20;;;;;;;0.82;0.65;;;;;;;;;;6071409;23;20176;-92
2023/11/03 19:31:26;;;;;;;1.08;0.93;;;;;;;;;;6070672;23;20169;-93
2023/11/03 19:34:31;;;;;;;0.68;0.68;;;;;;;;;;6070638;23;20239;-91
2023/11/03 19:37:41;;;;;;;1.85;0.73;;;;;;;;;;6071431;23;20239;-91
2023/11/03 19:40:49;;;;;;;1.33;1.23;;;;;;;;;;6071580;23;20487;-91
2023/11/03 19:43:54;;;;;;;0.35;0.35;;;;;;;;;;6070114;23;20163;-90
2023/11/03 19:47:02;;;;;;;8.48;3.90;;;;;;;;;;6072085;23;20169;-92
2023/11/03 19:50:08;;;;;;;7.45;4.22;;;;;;;;;;6071079;23;20189;-89
2023/11/03 19:53:15;;;;;;;11.75;5.45;;;;;;;;;;6072484;23;20170;-90
2023/11/03 19:56:24;;;;;;;8.70;4.32;;;;;;;;;;6070591;23;20203;-90
2023/11/03 19:59:33;;;;;;;12.90;4.95;;;;;;;;;;6070555;23;20188;-92
2023/11/03 20:02:39;;;;;;;6.75;3.88;;;;;;;;;;6086728;23;20186;-90
2023/11/03 20:05:50;;;;;;;12.13;4.63;;;;;;;;;;6072824;23;20224;-91
2023/11/03 20:08:55;;;;;;;9.82;5.05;;;;;;;;;;6063707;23;20322;-93
2023/11/03 20:12:07;;;;;;;7.45;4.15;;;;;;;;;;6066800;23;20174;-93
2023/11/03 20:15:14;;;;;;;8.85;3.60;;;;;;;;;;6068043;23;20175;-93
2023/11/03 20:18:20;;;;;;;9.32;4.18;;;;;;;;;;6066311;23;20178;-91
2023/11/03 20:21:27;;;;;;;7.50;4.50;;;;;;;;;;6065554;23;20498;-90
2023/11/03 20:24:32;;;;;;;9.10;4.82;;;;;;;;;;6065854;23;20174;-91
2023/11/03 20:27:38;;;;;;;11.32;4.53;;;;;;;;;;6066299;23;20178;-93
2023/11/03 20:30:44;;;;;;;9.75;4.55;;;;;;;;;;6064463;23;20239;-90
2023/11/03 20:33:50;;;;;;;7.55;4.05;;;;;;;;;;6064035;23;20173;-91
2023/11/03 20:36:56;;;;;;;6.95;3.58;;;;;;;;;;6068303;23;20195;-89
2023/11/03 20:40:03;;;;;;;9.52;3.80;;;;;;;;;;6066012;23;20166;-91
2023/11/03 20:43:13;;;;;;;7.90;2.90;;;;;;;;;;6070931;23;20178;-89
2023/11/03 20:46:18;;;;;;;10.20;3.67;;;;;;;;;;6064827;23;20174;-90
2023/11/03 20:49:27;;;;;;;9.60;5.22;;;;;;;;;;6061632;23;20194;-90